sensor_id;sensor_type;location;lat;lon;timestamp;P1;durP1;ratioP1;P2;durP2;ratioP2
42972;SDS011;28610;51.214;6.962;2022-10-03T00:00:19;13.47;;;5.50;;
42972;SDS011;28610;51.214;6.962;2022-10-03T00:06:08;14.40;;;5.23;;
42972;SDS011;28610;51.214;6.962;2022-10-03T00:09:03;16.27;;;6.17;;
42972;SDS011;28610;51.214;6.962;2022-10-03T00:12:08;13.87;;;5.50;;
42972;SDS011;28610;51.214;6.962;2022-10-03T00:15:03;19.00;;;5.47;;
42972;SDS011;28610;51.214;6.962;2022-10-03T00:17:56;22.30;;;5.90;;
42972;SDS011;28610;51.214;6.962;2022-10-03T00:20:50;15.43;;;5.33;;
42972;SDS011;28610;51.214;6.962;2022-10-03T00:23:49;20.07;;;6.03;;
42972;SDS011;28610;51.214;6.962;2022-10-03T00:26:46;23.60;;;6.43;;
42972;SDS011;28610;51.214;6.962;2022-10-03T00:29:41;19.23;;;5.60;;
42972;SDS011;28610;51.214;6.962;2022-10-03T00:32:47;18.53;;;6.20;;
42972;SDS011;28610;51.214;6.962;2022-10-03T00:35:50;24.20;;;6.63;;
42972;SDS011;28610;51.214;6.962;2022-10-03T00:38:47;16.73;;;5.77;;
42972;SDS011;28610;51.214;6.962;2022-10-03T00:42:06;17.80;;;5.57;;
42972;SDS011;28610;51.214;6.962;2022-10-03T00:45:39;16.33;;;5.80;;
42972;SDS011;28610;51.214;6.962;2022-10-03T00:49:03;19.87;;;5.20;;
42972;SDS011;28610;51.214;6.962;2022-10-03T00:52:13;20.57;;;6.40;;
42972;SDS011;28610;51.214;6.962;2022-10-03T00:55:15;17.13;;;5.50;;
42972;SDS011;28610;51.214;6.962;2022-10-03T00:58:13;20.03;;;6.10;;
42972;SDS011;28610;51.214;6.962;2022-10-03T01:01:20;18.53;;;5.73;;
42972;SDS011;28610;51.214;6.962;2022-10-03T01:04:13;18.70;;;5.90;;
42972;SDS011;28610;51.214;6.962;2022-10-03T01:07:20;16.37;;;5.77;;
42972;SDS011;28610;51.214;6.962;2022-10-03T01:10:16;21.03;;;6.70;;
42972;SDS011;28610;51.214;6.962;2022-10-03T01:13:15;23.10;;;6.63;;
42972;SDS011;28610;51.214;6.962;2022-10-03T01:16:13;16.90;;;6.13;;
42972;SDS011;28610;51.214;6.962;2022-10-03T01:19:05;25.17;;;7.37;;
42972;SDS011;28610;51.214;6.962;2022-10-03T01:22:15;20.43;;;6.77;;
42972;SDS011;28610;51.214;6.962;2022-10-03T01:25:17;13.10;;;6.50;;
42972;SDS011;28610;51.214;6.962;2022-10-03T01:28:11;22.07;;;6.67;;
42972;SDS011;28610;51.214;6.962;2022-10-03T01:31:29;23.00;;;7.50;;
42972;SDS011;28610;51.214;6.962;2022-10-03T01:34:24;28.67;;;8.23;;
42972;SDS011;28610;51.214;6.962;2022-10-03T01:37:16;24.73;;;7.47;;
42972;SDS011;28610;51.214;6.962;2022-10-03T01:40:12;23.03;;;7.00;;
42972;SDS011;28610;51.214;6.962;2022-10-03T01:43:14;19.70;;;7.37;;
42972;SDS011;28610;51.214;6.962;2022-10-03T01:46:06;24.70;;;7.80;;
42972;SDS011;28610;51.214;6.962;2022-10-03T01:49:00;19.97;;;7.43;;
42972;SDS011;28610;51.214;6.962;2022-10-03T01:51:55;22.20;;;7.57;;
42972;SDS011;28610;51.214;6.962;2022-10-03T01:54:50;21.97;;;7.33;;
42972;SDS011;28610;51.214;6.962;2022-10-03T01:57:43;30.60;;;8.50;;
42972;SDS011;28610;51.214;6.962;2022-10-03T02:00:34;25.93;;;8.47;;
42972;SDS011;28610;51.214;6.962;2022-10-03T02:03:30;21.23;;;8.43;;
42972;SDS011;28610;51.214;6.962;2022-10-03T02:06:22;23.17;;;7.70;;
42972;SDS011;28610;51.214;6.962;2022-10-03T02:09:17;23.40;;;8.40;;
42972;SDS011;28610;51.214;6.962;2022-10-03T02:12:12;23.90;;;7.73;;
42972;SDS011;28610;51.214;6.962;2022-10-03T02:15:01;25.23;;;8.00;;
42972;SDS011;28610;51.214;6.962;2022-10-03T02:18:00;22.33;;;7.73;;
42972;SDS011;28610;51.214;6.962;2022-10-03T02:20:57;29.40;;;8.33;;
42972;SDS011;28610;51.214;6.962;2022-10-03T02:24:03;22.10;;;7.80;;
42972;SDS011;28610;51.214;6.962;2022-10-03T02:27:27;18.13;;;7.43;;
42972;SDS011;28610;51.214;6.962;2022-10-03T02:30:33;21.13;;;7.20;;
42972;SDS011;28610;51.214;6.962;2022-10-03T02:33:35;21.77;;;7.20;;
42972;SDS011;28610;51.214;6.962;2022-10-03T02:36:50;20.60;;;7.93;;
42972;SDS011;28610;51.214;6.962;2022-10-03T02:43:34;23.93;;;6.67;;
42972;SDS011;28610;51.214;6.962;2022-10-03T02:46:44;28.70;;;8.40;;
42972;SDS011;28610;51.214;6.962;2022-10-03T02:53:26;23.27;;;7.73;;
42972;SDS011;28610;51.214;6.962;2022-10-03T03:00:03;22.87;;;8.43;;
42972;SDS011;28610;51.214;6.962;2022-10-03T03:09:31;24.20;;;7.70;;
42972;SDS011;28610;51.214;6.962;2022-10-03T03:19:27;20.63;;;8.00;;
42972;SDS011;28610;51.214;6.962;2022-10-03T03:22:27;19.10;;;7.47;;
42972;SDS011;28610;51.214;6.962;2022-10-03T03:25:28;19.27;;;7.60;;
42972;SDS011;28610;51.214;6.962;2022-10-03T03:28:37;23.87;;;7.83;;
42972;SDS011;28610;51.214;6.962;2022-10-03T03:31:28;20.97;;;7.33;;
42972;SDS011;28610;51.214;6.962;2022-10-03T03:34:21;22.33;;;7.70;;
42972;SDS011;28610;51.214;6.962;2022-10-03T03:37:12;20.00;;;7.70;;
42972;SDS011;28610;51.214;6.962;2022-10-03T03:40:10;24.37;;;7.63;;
42972;SDS011;28610;51.214;6.962;2022-10-03T03:43:21;17.50;;;7.27;;
42972;SDS011;28610;51.214;6.962;2022-10-03T03:46:26;27.23;;;7.87;;
42972;SDS011;28610;51.214;6.962;2022-10-03T03:49:26;20.33;;;8.10;;
42972;SDS011;28610;51.214;6.962;2022-10-03T03:52:24;21.57;;;8.37;;
42972;SDS011;28610;51.214;6.962;2022-10-03T03:55:26;25.87;;;8.43;;
42972;SDS011;28610;51.214;6.962;2022-10-03T03:58:33;23.47;;;8.23;;
42972;SDS011;28610;51.214;6.962;2022-10-03T04:04:44;23.60;;;8.50;;
42972;SDS011;28610;51.214;6.962;2022-10-03T04:07:44;27.47;;;8.13;;
42972;SDS011;28610;51.214;6.962;2022-10-03T04:10:46;21.77;;;8.60;;
42972;SDS011;28610;51.214;6.962;2022-10-03T04:13:46;22.00;;;9.00;;
42972;SDS011;28610;51.214;6.962;2022-10-03T04:16:49;22.30;;;8.43;;
42972;SDS011;28610;51.214;6.962;2022-10-03T04:20:11;21.60;;;8.27;;
42972;SDS011;28610;51.214;6.962;2022-10-03T04:23:09;22.50;;;8.00;;
42972;SDS011;28610;51.214;6.962;2022-10-03T04:26:12;24.50;;;8.10;;
42972;SDS011;28610;51.214;6.962;2022-10-03T04:32:30;23.33;;;8.70;;
42972;SDS011;28610;51.214;6.962;2022-10-03T04:35:47;22.53;;;8.50;;
42972;SDS011;28610;51.214;6.962;2022-10-03T04:39:04;20.97;;;8.30;;
42972;SDS011;28610;51.214;6.962;2022-10-03T04:41:55;33.80;;;10.83;;
42972;SDS011;28610;51.214;6.962;2022-10-03T04:44:52;28.50;;;9.03;;
42972;SDS011;28610;51.214;6.962;2022-10-03T04:48:04;23.73;;;9.70;;
42972;SDS011;28610;51.214;6.962;2022-10-03T04:51:02;22.63;;;8.50;;
42972;SDS011;28610;51.214;6.962;2022-10-03T04:53:52;21.97;;;8.67;;
42972;SDS011;28610;51.214;6.962;2022-10-03T04:56:47;20.43;;;8.40;;
42972;SDS011;28610;51.214;6.962;2022-10-03T04:59:41;26.53;;;9.23;;
42972;SDS011;28610;51.214;6.962;2022-10-03T05:02:39;26.57;;;9.93;;
42972;SDS011;28610;51.214;6.962;2022-10-03T05:05:41;22.93;;;9.30;;
42972;SDS011;28610;51.214;6.962;2022-10-03T05:08:34;30.23;;;9.87;;
42972;SDS011;28610;51.214;6.962;2022-10-03T05:11:28;29.23;;;9.40;;
42972;SDS011;28610;51.214;6.962;2022-10-03T05:14:25;26.47;;;10.20;;
42972;SDS011;28610;51.214;6.962;2022-10-03T05:17:21;28.03;;;9.73;;
42972;SDS011;28610;51.214;6.962;2022-10-03T05:20:20;29.43;;;9.47;;
42972;SDS011;28610;51.214;6.962;2022-10-03T05:23:24;24.63;;;8.77;;
42972;SDS011;28610;51.214;6.962;2022-10-03T05:26:19;22.70;;;8.70;;
42972;SDS011;28610;51.214;6.962;2022-10-03T05:29:09;27.43;;;9.57;;
42972;SDS011;28610;51.214;6.962;2022-10-03T05:32:12;25.17;;;9.23;;
42972;SDS011;28610;51.214;6.962;2022-10-03T05:35:26;27.37;;;10.00;;
42972;SDS011;28610;51.214;6.962;2022-10-03T05:38:19;31.50;;;10.70;;
42972;SDS011;28610;51.214;6.962;2022-10-03T05:41:28;24.47;;;9.33;;
42972;SDS011;28610;51.214;6.962;2022-10-03T05:44:15;25.20;;;9.97;;
42972;SDS011;28610;51.214;6.962;2022-10-03T05:47:03;32.73;;;10.07;;
42972;SDS011;28610;51.214;6.962;2022-10-03T05:50:22;27.23;;;10.83;;
42972;SDS011;28610;51.214;6.962;2022-10-03T06:00:18;31.03;;;10.33;;
42972;SDS011;28610;51.214;6.962;2022-10-03T06:03:13;35.40;;;10.63;;
42972;SDS011;28610;51.214;6.962;2022-10-03T06:06:17;37.83;;;10.70;;
42972;SDS011;28610;51.214;6.962;2022-10-03T06:12:39;28.00;;;10.77;;
42972;SDS011;28610;51.214;6.962;2022-10-03T06:15:37;37.67;;;11.93;;
42972;SDS011;28610;51.214;6.962;2022-10-03T06:18:43;28.23;;;11.07;;
42972;SDS011;28610;51.214;6.962;2022-10-03T06:28:38;33.53;;;12.03;;
42972;SDS011;28610;51.214;6.962;2022-10-03T06:35:31;27.50;;;10.07;;
42972;SDS011;28610;51.214;6.962;2022-10-03T06:39:06;31.43;;;10.63;;
42972;SDS011;28610;51.214;6.962;2022-10-03T06:42:21;31.10;;;10.23;;
42972;SDS011;28610;51.214;6.962;2022-10-03T06:45:39;32.80;;;11.17;;
42972;SDS011;28610;51.214;6.962;2022-10-03T06:49:06;27.07;;;11.07;;
42972;SDS011;28610;51.214;6.962;2022-10-03T06:55:46;37.30;;;11.17;;
42972;SDS011;28610;51.214;6.962;2022-10-03T06:59:02;31.47;;;10.63;;
42972;SDS011;28610;51.214;6.962;2022-10-03T07:02:02;36.20;;;11.60;;
42972;SDS011;28610;51.214;6.962;2022-10-03T07:05:22;28.07;;;10.60;;
42972;SDS011;28610;51.214;6.962;2022-10-03T07:08:40;33.30;;;11.80;;
42972;SDS011;28610;51.214;6.962;2022-10-03T07:15:26;34.27;;;12.03;;
42972;SDS011;28610;51.214;6.962;2022-10-03T07:18:35;34.00;;;11.13;;
42972;SDS011;28610;51.214;6.962;2022-10-03T07:22:02;35.60;;;11.83;;
42972;SDS011;28610;51.214;6.962;2022-10-03T07:25:30;31.70;;;10.80;;
42972;SDS011;28610;51.214;6.962;2022-10-03T07:32:03;32.47;;;11.93;;
42972;SDS011;28610;51.214;6.962;2022-10-03T07:35:16;34.87;;;11.33;;
42972;SDS011;28610;51.214;6.962;2022-10-03T07:42:10;27.43;;;10.90;;
42972;SDS011;28610;51.214;6.962;2022-10-03T07:45:24;32.73;;;12.57;;
42972;SDS011;28610;51.214;6.962;2022-10-03T07:51:40;41.97;;;12.47;;
42972;SDS011;28610;51.214;6.962;2022-10-03T07:54:44;28.43;;;12.57;;
42972;SDS011;28610;51.214;6.962;2022-10-03T07:58:02;38.57;;;13.27;;
42972;SDS011;28610;51.214;6.962;2022-10-03T08:01:15;32.90;;;12.87;;
42972;SDS011;28610;51.214;6.962;2022-10-03T08:04:22;36.90;;;13.27;;
42972;SDS011;28610;51.214;6.962;2022-10-03T08:07:30;32.57;;;12.67;;
42972;SDS011;28610;51.214;6.962;2022-10-03T08:10:45;36.53;;;13.67;;
42972;SDS011;28610;51.214;6.962;2022-10-03T08:14:06;30.87;;;14.43;;
42972;SDS011;28610;51.214;6.962;2022-10-03T08:17:09;41.27;;;14.90;;
42972;SDS011;28610;51.214;6.962;2022-10-03T08:20:21;38.87;;;14.07;;
42972;SDS011;28610;51.214;6.962;2022-10-03T08:23:43;33.90;;;15.97;;
42972;SDS011;28610;51.214;6.962;2022-10-03T08:27:00;37.40;;;17.80;;
42972;SDS011;28610;51.214;6.962;2022-10-03T08:30:01;39.93;;;17.57;;
42972;SDS011;28610;51.214;6.962;2022-10-03T08:32:57;39.87;;;16.67;;
42972;SDS011;28610;51.214;6.962;2022-10-03T08:36:12;32.07;;;17.03;;
42972;SDS011;28610;51.214;6.962;2022-10-03T08:39:23;38.23;;;17.60;;
42972;SDS011;28610;51.214;6.962;2022-10-03T08:42:35;38.27;;;17.70;;
42972;SDS011;28610;51.214;6.962;2022-10-03T08:49:16;32.77;;;14.80;;
42972;SDS011;28610;51.214;6.962;2022-10-03T08:52:23;29.27;;;14.83;;
42972;SDS011;28610;51.214;6.962;2022-10-03T08:55:23;27.80;;;14.03;;
42972;SDS011;28610;51.214;6.962;2022-10-03T08:58:29;33.00;;;14.40;;
42972;SDS011;28610;51.214;6.962;2022-10-03T09:01:42;29.87;;;14.30;;
42972;SDS011;28610;51.214;6.962;2022-10-03T09:05:09;28.67;;;11.97;;
42972;SDS011;28610;51.214;6.962;2022-10-03T09:08:26;30.20;;;12.30;;
42972;SDS011;28610;51.214;6.962;2022-10-03T09:11:36;29.20;;;11.30;;
42972;SDS011;28610;51.214;6.962;2022-10-03T09:14:37;26.57;;;11.77;;
42972;SDS011;28610;51.214;6.962;2022-10-03T09:17:37;28.07;;;12.27;;
42972;SDS011;28610;51.214;6.962;2022-10-03T09:24:26;31.67;;;11.83;;
42972;SDS011;28610;51.214;6.962;2022-10-03T09:27:34;29.50;;;12.13;;
42972;SDS011;28610;51.214;6.962;2022-10-03T09:30:36;26.17;;;10.70;;
42972;SDS011;28610;51.214;6.962;2022-10-03T09:33:54;30.37;;;10.30;;
42972;SDS011;28610;51.214;6.962;2022-10-03T09:43:46;23.20;;;8.40;;
42972;SDS011;28610;51.214;6.962;2022-10-03T09:47:01;25.50;;;8.53;;
42972;SDS011;28610;51.214;6.962;2022-10-03T09:50:35;21.30;;;8.80;;
42972;SDS011;28610;51.214;6.962;2022-10-03T09:57:10;22.60;;;7.30;;
42972;SDS011;28610;51.214;6.962;2022-10-03T10:00:39;16.63;;;7.17;;
42972;SDS011;28610;51.214;6.962;2022-10-03T10:04:05;21.80;;;7.13;;
42972;SDS011;28610;51.214;6.962;2022-10-03T10:07:34;23.50;;;6.00;;
42972;SDS011;28610;51.214;6.962;2022-10-03T10:10:52;20.63;;;6.93;;
42972;SDS011;28610;51.214;6.962;2022-10-03T10:14:01;21.40;;;5.87;;
42972;SDS011;28610;51.214;6.962;2022-10-03T10:17:28;17.80;;;5.70;;
42972;SDS011;28610;51.214;6.962;2022-10-03T10:20:57;14.63;;;4.90;;
42972;SDS011;28610;51.214;6.962;2022-10-03T10:24:11;17.23;;;5.70;;
42972;SDS011;28610;51.214;6.962;2022-10-03T10:27:18;18.70;;;6.90;;
42972;SDS011;28610;51.214;6.962;2022-10-03T10:34:10;18.17;;;5.23;;
42972;SDS011;28610;51.214;6.962;2022-10-03T10:40:42;17.75;;;4.90;;
42972;SDS011;28610;51.214;6.962;2022-10-03T10:44:29;16.80;;;4.77;;
42972;SDS011;28610;51.214;6.962;2022-10-03T10:47:58;15.52;;;3.45;;
42972;SDS011;28610;51.214;6.962;2022-10-03T10:58:13;10.50;;;3.13;;
42972;SDS011;28610;51.214;6.962;2022-10-03T11:01:36;9.23;;;3.17;;
42972;SDS011;28610;51.214;6.962;2022-10-03T11:05:17;16.83;;;4.10;;
42972;SDS011;28610;51.214;6.962;2022-10-03T11:11:57;14.43;;;3.30;;
42972;SDS011;28610;51.214;6.962;2022-10-03T11:22:22;13.67;;;3.20;;
42972;SDS011;28610;51.214;6.962;2022-10-03T11:26:06;18.43;;;3.47;;
42972;SDS011;28610;51.214;6.962;2022-10-03T11:29:29;13.17;;;3.37;;
42972;SDS011;28610;51.214;6.962;2022-10-03T11:36:36;8.23;;;2.90;;
42972;SDS011;28610;51.214;6.962;2022-10-03T11:39:39;11.73;;;2.93;;
42972;SDS011;28610;51.214;6.962;2022-10-03T11:42:33;14.00;;;3.03;;
42972;SDS011;28610;51.214;6.962;2022-10-03T11:45:31;10.57;;;3.13;;
42972;SDS011;28610;51.214;6.962;2022-10-03T11:48:24;11.33;;;3.30;;
42972;SDS011;28610;51.214;6.962;2022-10-03T11:51:34;8.97;;;2.90;;
42972;SDS011;28610;51.214;6.962;2022-10-03T11:54:23;16.50;;;3.53;;
42972;SDS011;28610;51.214;6.962;2022-10-03T11:57:15;11.02;;;3.33;;
42972;SDS011;28610;51.214;6.962;2022-10-03T12:00:10;12.17;;;3.77;;
42972;SDS011;28610;51.214;6.962;2022-10-03T12:03:06;9.35;;;2.70;;
42972;SDS011;28610;51.214;6.962;2022-10-03T12:06:01;12.33;;;3.30;;
42972;SDS011;28610;51.214;6.962;2022-10-03T12:09:12;11.23;;;3.13;;
42972;SDS011;28610;51.214;6.962;2022-10-03T12:12:04;8.73;;;2.80;;
42972;SDS011;28610;51.214;6.962;2022-10-03T12:14:57;13.52;;;3.55;;
42972;SDS011;28610;51.214;6.962;2022-10-03T12:17:51;17.60;;;3.67;;
42972;SDS011;28610;51.214;6.962;2022-10-03T12:23:55;10.35;;;2.90;;
42972;SDS011;28610;51.214;6.962;2022-10-03T12:26:51;12.90;;;3.88;;
42972;SDS011;28610;51.214;6.962;2022-10-03T12:29:42;16.17;;;3.83;;
42972;SDS011;28610;51.214;6.962;2022-10-03T12:32:31;11.07;;;3.73;;
42972;SDS011;28610;51.214;6.962;2022-10-03T12:35:28;10.00;;;3.33;;
42972;SDS011;28610;51.214;6.962;2022-10-03T12:38:27;11.90;;;3.45;;
42972;SDS011;28610;51.214;6.962;2022-10-03T12:41:24;12.25;;;3.58;;
42972;SDS011;28610;51.214;6.962;2022-10-03T12:44:32;15.55;;;4.30;;
42972;SDS011;28610;51.214;6.962;2022-10-03T12:47:31;13.10;;;3.20;;
42972;SDS011;28610;51.214;6.962;2022-10-03T12:50:37;12.13;;;3.33;;
42972;SDS011;28610;51.214;6.962;2022-10-03T12:53:33;12.23;;;3.70;;
42972;SDS011;28610;51.214;6.962;2022-10-03T12:56:29;11.40;;;3.40;;
42972;SDS011;28610;51.214;6.962;2022-10-03T12:59:25;8.07;;;3.00;;
42972;SDS011;28610;51.214;6.962;2022-10-03T13:02:22;9.35;;;3.30;;
42972;SDS011;28610;51.214;6.962;2022-10-03T13:08:35;8.10;;;2.88;;
42972;SDS011;28610;51.214;6.962;2022-10-03T13:11:29;8.13;;;3.05;;
42972;SDS011;28610;51.214;6.962;2022-10-03T13:14:29;12.52;;;3.42;;
42972;SDS011;28610;51.214;6.962;2022-10-03T13:17:47;17.67;;;3.33;;
42972;SDS011;28610;51.214;6.962;2022-10-03T13:20:38;11.40;;;3.47;;
42972;SDS011;28610;51.214;6.962;2022-10-03T13:23:29;10.83;;;3.63;;
42972;SDS011;28610;51.214;6.962;2022-10-03T13:26:25;12.73;;;3.33;;
42972;SDS011;28610;51.214;6.962;2022-10-03T13:29:26;13.10;;;3.60;;
42972;SDS011;28610;51.214;6.962;2022-10-03T13:32:19;10.23;;;3.27;;
42972;SDS011;28610;51.214;6.962;2022-10-03T13:35:18;11.48;;;3.33;;
42972;SDS011;28610;51.214;6.962;2022-10-03T13:38:30;8.10;;;3.37;;
42972;SDS011;28610;51.214;6.962;2022-10-03T13:41:47;9.85;;;3.50;;
42972;SDS011;28610;51.214;6.962;2022-10-03T13:44:51;10.80;;;3.57;;
42972;SDS011;28610;51.214;6.962;2022-10-03T13:47:42;12.40;;;3.85;;
42972;SDS011;28610;51.214;6.962;2022-10-03T13:50:31;9.40;;;3.17;;
42972;SDS011;28610;51.214;6.962;2022-10-03T13:53:30;10.23;;;3.60;;
42972;SDS011;28610;51.214;6.962;2022-10-03T13:56:44;11.70;;;3.73;;
42972;SDS011;28610;51.214;6.962;2022-10-03T13:59:37;12.57;;;3.60;;
42972;SDS011;28610;51.214;6.962;2022-10-03T14:02:38;10.15;;;3.65;;
42972;SDS011;28610;51.214;6.962;2022-10-03T14:05:47;10.23;;;3.60;;
42972;SDS011;28610;51.214;6.962;2022-10-03T14:08:43;10.40;;;3.40;;
42972;SDS011;28610;51.214;6.962;2022-10-03T14:11:53;9.73;;;3.10;;
42972;SDS011;28610;51.214;6.962;2022-10-03T14:18:04;10.67;;;3.20;;
42972;SDS011;28610;51.214;6.962;2022-10-03T14:24:13;9.80;;;3.67;;
42972;SDS011;28610;51.214;6.962;2022-10-03T14:27:23;9.43;;;3.37;;
42972;SDS011;28610;51.214;6.962;2022-10-03T14:30:19;11.98;;;3.70;;
42972;SDS011;28610;51.214;6.962;2022-10-03T14:33:10;7.63;;;3.27;;
42972;SDS011;28610;51.214;6.962;2022-10-03T14:36:07;11.90;;;3.33;;
42972;SDS011;28610;51.214;6.962;2022-10-03T14:39:11;7.60;;;3.30;;
42972;SDS011;28610;51.214;6.962;2022-10-03T14:42:28;12.57;;;3.30;;
42972;SDS011;28610;51.214;6.962;2022-10-03T14:45:21;8.53;;;3.40;;
42972;SDS011;28610;51.214;6.962;2022-10-03T14:48:12;9.60;;;3.87;;
42972;SDS011;28610;51.214;6.962;2022-10-03T14:51:05;10.93;;;3.37;;
42972;SDS011;28610;51.214;6.962;2022-10-03T14:53:57;13.40;;;3.67;;
42972;SDS011;28610;51.214;6.962;2022-10-03T14:56:48;9.03;;;3.33;;
42972;SDS011;28610;51.214;6.962;2022-10-03T14:59:36;11.67;;;3.80;;
42972;SDS011;28610;51.214;6.962;2022-10-03T15:02:24;8.20;;;3.20;;
42972;SDS011;28610;51.214;6.962;2022-10-03T15:05:13;11.10;;;3.50;;
42972;SDS011;28610;51.214;6.962;2022-10-03T15:08:10;11.80;;;3.77;;
42972;SDS011;28610;51.214;6.962;2022-10-03T15:11:01;12.20;;;3.53;;
42972;SDS011;28610;51.214;6.962;2022-10-03T15:13:49;11.03;;;3.47;;
42972;SDS011;28610;51.214;6.962;2022-10-03T15:16:43;11.40;;;3.70;;
42972;SDS011;28610;51.214;6.962;2022-10-03T15:19:32;10.70;;;3.70;;
42972;SDS011;28610;51.214;6.962;2022-10-03T15:22:26;10.20;;;3.70;;
42972;SDS011;28610;51.214;6.962;2022-10-03T15:25:15;8.47;;;3.90;;
42972;SDS011;28610;51.214;6.962;2022-10-03T15:28:03;10.67;;;3.20;;
42972;SDS011;28610;51.214;6.962;2022-10-03T15:30:52;12.40;;;3.55;;
42972;SDS011;28610;51.214;6.962;2022-10-03T15:33:40;9.33;;;3.80;;
42972;SDS011;28610;51.214;6.962;2022-10-03T15:36:29;9.67;;;3.60;;
42972;SDS011;28610;51.214;6.962;2022-10-03T15:39:19;10.60;;;3.90;;
42972;SDS011;28610;51.214;6.962;2022-10-03T15:42:16;12.47;;;4.30;;
42972;SDS011;28610;51.214;6.962;2022-10-03T15:45:09;10.10;;;3.40;;
42972;SDS011;28610;51.214;6.962;2022-10-03T15:48:09;12.77;;;3.40;;
42972;SDS011;28610;51.214;6.962;2022-10-03T15:51:01;9.60;;;3.07;;
42972;SDS011;28610;51.214;6.962;2022-10-03T15:53:49;10.93;;;4.03;;
42972;SDS011;28610;51.214;6.962;2022-10-03T15:56:37;10.23;;;3.30;;
42972;SDS011;28610;51.214;6.962;2022-10-03T15:59:25;11.13;;;3.77;;
42972;SDS011;28610;51.214;6.962;2022-10-03T16:02:17;10.40;;;3.73;;
42972;SDS011;28610;51.214;6.962;2022-10-03T16:05:05;12.13;;;3.40;;
42972;SDS011;28610;51.214;6.962;2022-10-03T16:08:05;10.07;;;3.70;;
42972;SDS011;28610;51.214;6.962;2022-10-03T16:10:56;9.27;;;3.70;;
42972;SDS011;28610;51.214;6.962;2022-10-03T16:13:50;10.27;;;3.83;;
42972;SDS011;28610;51.214;6.962;2022-10-03T16:16:49;10.37;;;4.10;;
42972;SDS011;28610;51.214;6.962;2022-10-03T16:19:38;9.50;;;3.97;;
42972;SDS011;28610;51.214;6.962;2022-10-03T16:22:27;14.50;;;4.70;;
42972;SDS011;28610;51.214;6.962;2022-10-03T16:25:23;10.63;;;4.60;;
42972;SDS011;28610;51.214;6.962;2022-10-03T16:28:12;12.23;;;4.87;;
42972;SDS011;28610;51.214;6.962;2022-10-03T16:31:01;13.83;;;5.60;;
42972;SDS011;28610;51.214;6.962;2022-10-03T16:33:49;13.77;;;5.40;;
42972;SDS011;28610;51.214;6.962;2022-10-03T16:36:40;13.90;;;5.77;;
42972;SDS011;28610;51.214;6.962;2022-10-03T16:39:28;12.87;;;5.70;;
42972;SDS011;28610;51.214;6.962;2022-10-03T16:42:19;13.40;;;6.30;;
42972;SDS011;28610;51.214;6.962;2022-10-03T16:45:16;14.23;;;6.40;;
42972;SDS011;28610;51.214;6.962;2022-10-03T16:48:08;13.83;;;6.63;;
42972;SDS011;28610;51.214;6.962;2022-10-03T16:51:16;14.80;;;6.47;;
42972;SDS011;28610;51.214;6.962;2022-10-03T16:54:03;12.80;;;6.30;;
42972;SDS011;28610;51.214;6.962;2022-10-03T16:56:53;14.07;;;6.30;;
42972;SDS011;28610;51.214;6.962;2022-10-03T16:59:45;18.43;;;6.23;;
42972;SDS011;28610;51.214;6.962;2022-10-03T17:02:35;13.60;;;5.70;;
42972;SDS011;28610;51.214;6.962;2022-10-03T17:05:22;13.03;;;5.77;;
42972;SDS011;28610;51.214;6.962;2022-10-03T17:08:07;29.10;;;11.30;;
42972;SDS011;28610;51.214;6.962;2022-10-03T17:10:57;51.27;;;20.53;;
42972;SDS011;28610;51.214;6.962;2022-10-03T17:13:46;28.27;;;12.93;;
42972;SDS011;28610;51.214;6.962;2022-10-03T17:16:36;21.90;;;10.30;;
42972;SDS011;28610;51.214;6.962;2022-10-03T17:19:30;17.53;;;9.10;;
42972;SDS011;28610;51.214;6.962;2022-10-03T17:22:19;21.07;;;11.30;;
42972;SDS011;28610;51.214;6.962;2022-10-03T17:28:23;17.80;;;9.43;;
42972;SDS011;28610;51.214;6.962;2022-10-03T17:31:21;26.27;;;9.70;;
42972;SDS011;28610;51.214;6.962;2022-10-03T17:34:13;19.53;;;8.93;;
42972;SDS011;28610;51.214;6.962;2022-10-03T17:37:04;19.70;;;9.07;;
42972;SDS011;28610;51.214;6.962;2022-10-03T17:40:12;25.47;;;11.30;;
42972;SDS011;28610;51.214;6.962;2022-10-03T17:43:04;28.13;;;11.37;;
42972;SDS011;28610;51.214;6.962;2022-10-03T17:46:01;29.30;;;14.57;;
42972;SDS011;28610;51.214;6.962;2022-10-03T17:48:52;38.93;;;14.83;;
42972;SDS011;28610;51.214;6.962;2022-10-03T17:51:45;26.93;;;12.97;;
42972;SDS011;28610;51.214;6.962;2022-10-03T17:54:34;29.93;;;12.23;;
42972;SDS011;28610;51.214;6.962;2022-10-03T17:57:22;21.43;;;10.97;;
42972;SDS011;28610;51.214;6.962;2022-10-03T18:00:15;21.97;;;11.00;;
42972;SDS011;28610;51.214;6.962;2022-10-03T18:03:03;23.33;;;9.53;;
42972;SDS011;28610;51.214;6.962;2022-10-03T18:05:52;25.37;;;9.93;;
42972;SDS011;28610;51.214;6.962;2022-10-03T18:08:43;20.33;;;8.93;;
42972;SDS011;28610;51.214;6.962;2022-10-03T18:11:30;22.07;;;7.97;;
42972;SDS011;28610;51.214;6.962;2022-10-03T18:14:27;20.37;;;6.90;;
42972;SDS011;28610;51.214;6.962;2022-10-03T18:17:19;16.10;;;7.07;;
42972;SDS011;28610;51.214;6.962;2022-10-03T18:20:18;15.63;;;6.03;;
42972;SDS011;28610;51.214;6.962;2022-10-03T18:23:17;13.73;;;5.57;;
42972;SDS011;28610;51.214;6.962;2022-10-03T18:26:11;19.80;;;6.10;;
42972;SDS011;28610;51.214;6.962;2022-10-03T18:29:09;12.97;;;5.70;;
42972;SDS011;28610;51.214;6.962;2022-10-03T18:32:10;15.80;;;6.63;;
42972;SDS011;28610;51.214;6.962;2022-10-03T18:35:01;19.90;;;6.87;;
42972;SDS011;28610;51.214;6.962;2022-10-03T18:38:02;18.03;;;6.30;;
42972;SDS011;28610;51.214;6.962;2022-10-03T18:40:56;16.23;;;6.70;;
42972;SDS011;28610;51.214;6.962;2022-10-03T18:43:45;25.23;;;7.53;;
42972;SDS011;28610;51.214;6.962;2022-10-03T18:46:41;22.10;;;6.40;;
42972;SDS011;28610;51.214;6.962;2022-10-03T18:49:30;18.27;;;7.40;;
42972;SDS011;28610;51.214;6.962;2022-10-03T18:52:18;20.07;;;6.93;;
42972;SDS011;28610;51.214;6.962;2022-10-03T18:55:12;15.23;;;6.00;;
42972;SDS011;28610;51.214;6.962;2022-10-03T18:58:03;15.77;;;5.87;;
42972;SDS011;28610;51.214;6.962;2022-10-03T19:01:00;20.73;;;6.10;;
42972;SDS011;28610;51.214;6.962;2022-10-03T19:03:50;19.13;;;6.57;;
42972;SDS011;28610;51.214;6.962;2022-10-03T19:06:42;16.20;;;5.83;;
42972;SDS011;28610;51.214;6.962;2022-10-03T19:09:32;19.23;;;6.13;;
42972;SDS011;28610;51.214;6.962;2022-10-03T19:12:19;17.50;;;6.20;;
42972;SDS011;28610;51.214;6.962;2022-10-03T19:15:09;16.80;;;6.30;;
42972;SDS011;28610;51.214;6.962;2022-10-03T19:18:07;15.80;;;6.80;;
42972;SDS011;28610;51.214;6.962;2022-10-03T19:21:03;14.93;;;6.40;;
42972;SDS011;28610;51.214;6.962;2022-10-03T19:24:01;17.57;;;7.13;;
42972;SDS011;28610;51.214;6.962;2022-10-03T19:26:55;15.67;;;7.17;;
42972;SDS011;28610;51.214;6.962;2022-10-03T19:29:45;18.20;;;7.53;;
42972;SDS011;28610;51.214;6.962;2022-10-03T19:32:41;15.80;;;7.47;;
42972;SDS011;28610;51.214;6.962;2022-10-03T19:35:34;20.53;;;8.30;;
42972;SDS011;28610;51.214;6.962;2022-10-03T19:38:26;16.90;;;7.50;;
42972;SDS011;28610;51.214;6.962;2022-10-03T19:41:20;18.70;;;7.40;;
42972;SDS011;28610;51.214;6.962;2022-10-03T19:44:12;18.27;;;7.33;;
42972;SDS011;28610;51.214;6.962;2022-10-03T19:47:01;18.77;;;8.00;;
42972;SDS011;28610;51.214;6.962;2022-10-03T19:49:54;15.93;;;7.30;;
42972;SDS011;28610;51.214;6.962;2022-10-03T19:52:48;20.27;;;8.53;;
42972;SDS011;28610;51.214;6.962;2022-10-03T19:55:34;14.67;;;7.50;;
42972;SDS011;28610;51.214;6.962;2022-10-03T19:58:21;19.00;;;8.17;;
42972;SDS011;28610;51.214;6.962;2022-10-03T20:01:07;20.07;;;8.60;;
42972;SDS011;28610;51.214;6.962;2022-10-03T20:03:54;16.83;;;7.50;;